Weather observations for the past three days for
Oxnard, Oxnard Airport
Imperial (Metric)
Date Time (pdt) Wind (mph) Vis. (mi.) Weather Sky Cond. Temperature (ºF) Relative Humidity Wind Chill (°F) Heat Index (°F) Pressure Precipitation (in)
Air Dwpt 6 hour altimeter (in) sea level (mb) 1 hr 3 hr 6 hr
Max. Min.
03 09:51 SW 8 10.00 Overcast SCT025 OVC040 61 51.1 70% 29.96 1014.4
03 08:51 SW 3 10.00 Overcast OVC038 60.1 51.1 72% 29.95 1014.1
03 07:51 W 3 10.00 Overcast OVC031 59 51.1 75% 29.94 1013.6
03 06:51 Calm 9.00 Overcast OVC029 57.9 52 81% 29.91 1012.8
03 05:51 Calm 10.00 Overcast OVC029 57.9 51.1 78% 29.9 1012.3
03 03:51 W 5 10.00 Overcast OVC022 57.9 53.1 84% 29.91 1012.9
03 02:51 Calm 10.00 Overcast OVC021 57.9 53.1 84% 29.9 1012.4
03 01:51 W 6 10.00 Overcast OVC018 57.9 52 81% 29.92 1013.0
03 00:51 W 12 10.00 Overcast FEW010 OVC018 57.9 52 81% 29.92 1013.1
02 23:51 W 9 10.00 Overcast OVC016 57.9 53.1 84% 29.91 1012.8
02 22:51 W 7 10.00 Overcast OVC015 59 53.1 62.1 59 81% 29.91 1012.6
02 21:51 W 8 10.00 Overcast OVC010 59 54 83% 29.9 1012.4
02 20:51 W 9 10.00 Overcast OVC010 59 55 87% 29.87 1011.5
02 19:51 W 10 9.00 Overcast OVC013 59 55 87% 29.85 1010.8
02 18:51 W 6 7.00 Partly Cloudy SCT010 61 55.9 84% 29.84 1010.5
02 17:51 W 12 8.00 Overcast OVC010 61 55.9 84% 29.85 1010.7
02 16:51 W 12 8.00 Overcast OVC011 62.1 55.9 64.9 62.1 80% 29.86 1011.1
02 15:51 W 9 9.00 Overcast OVC012 63 55 76% 29.88 1011.7
02 14:51 W 12 7.00 Overcast OVC013 62.1 55.9 80% 29.92 1012.9
02 13:51 SW 8 9.00 Overcast OVC015 64 55 73% 29.93 1013.5
02 12:51 SW 8 8.00 Overcast OVC012 64 55 73% 29.94 1013.8
02 11:51 S 8 9.00 Overcast OVC012 63 55 76% 29.96 1014.5
02 10:51 S 5 8.00 Overcast OVC011 62.1 55 62.1 59 78% 29.96 1014.6
02 09:51 Calm 8.00 Overcast OVC009 61 55 81% 29.98 1014.9
02 08:51 Calm 7.00 Overcast OVC009 60.1 55 84% 29.97 1014.9
02 07:51 E 7 6.00 Overcast with Haze OVC009 60.1 55 84% 29.95 1014.1
02 06:51 E 7 6.00 Fog/Mist OVC009 59 55 87% 29.95 1013.9
02 05:51 SE 3 8.00 Overcast OVC008 59 55 87% 29.94 1013.7
02 04:51 SE 5 8.00 Overcast OVC009 59 55 59 57 87% 29.93 1013.4
02 03:51 SE 6 7.00 Overcast OVC009 59 55 87% 29.92 1013.2
02 02:51 SE 8 7.00 Overcast OVC007 59 55 87% 29.91 1012.8
02 01:51 S 3 7.00 Overcast OVC008 59 55 87% 29.92 1013.1
02 00:51 Calm 7.00 Fair CLR 57 54 90% 29.93 1013.5
01 23:51 Calm 8.00 Fair CLR 57.9 54 87% 29.93 1013.5
01 22:51 NE 6 8.00 Overcast OVC008 57.9 54 64.9 57 87% 29.93 1013.3
01 21:51 NW 6 7.00 Overcast BKN009 OVC012 57 54 90% 29.93 1013.3
01 20:51 W 14 8.00 Overcast OVC007 57.9 54 87% 29.91 1012.9
01 19:51 W 16 6.00 Fog/Mist OVC008 57.9 54 87% 29.9 1012.6
01 18:51 W 16 7.00 Partly Cloudy SCT008 60.1 55 84% 29.89 1012.2
01 17:51 W 15 7.00 A Few Clouds FEW008 62.1 55.9 80% 29.89 1012.1
01 16:51 W 14 8.00 Fair CLR 64.9 55 68 64 70% 29.9 1012.4
01 15:51 W 13 8.00 Fair CLR 66 55 68% 29.91 1012.8
01 14:51 W 12 G 18 7.00 Fair CLR 66 54 65% 29.93 1013.6
01 13:51 W 12 G 21 7.00 A Few Clouds FEW019 66 55 68% 29.94 1013.8
01 12:51 W 13 7.00 Partly Cloudy SCT022 66.9 55 66% 29.95 1014.2
01 11:51 W 12 7.00 Mostly Cloudy BKN022 66.9 55 66% 29.97 1014.8
01 10:51 W 7 7.00 Overcast OVC021 64.9 54 64.9 54 68% 29.98 1015.0
01 09:51 SW 7 6.00 Overcast with Haze OVC020 63 54 73% 29.98 1015.2
01 08:51 Calm 5.00 Mostly Cloudy with Haze SCT010 BKN020 61 54 78% 29.98 1015.0
01 07:51 NE 3 7.00 A Few Clouds FEW020 57.9 53.1 84% 29.97 1014.7
01 06:51 NE 5 5.00 Fog/Mist FEW018 55 51.1 87% 29.95 1014.2
01 05:51 NE 3 6.00 Fog/Mist CLR 54 52 93% 29.93 1013.3
01 04:51 Calm 7.00 Mostly Cloudy BKN011 BKN018 55 52 59 55 90% 29.93 1013.3
01 03:51 NE 3 6.00 Fog/Mist CLR 55 52 90% 29.92 1013.1
01 02:51 E 3 7.00 Fair CLR 55 52 90% 29.92 1012.9
01 01:51 E 5 6.00 Fog/Mist CLR 55.9 53.1 90% 29.92 1013.0
01 00:51 Calm 6.00 Fog/Mist CLR 57 53.1 87% 29.93 1013.4
30 23:51 W 3 6.00 Fog/Mist FEW019 57.9 54 87% 29.92 1013.1
30 22:51 S 3 6.00 A Few Clouds with Haze FEW014 59 54 64 57.9 83% 29.9 1012.4
30 21:51 W 3 6.00 Fog/Mist CLR 57.9 55 90% 29.89 1012.1
30 20:51 W 6 6.00 Fog/Mist CLR 57.9 54 87% 29.87 1011.4
30 19:51 W 8 5.00 Fog/Mist FEW012 59 55 87% 29.85 1010.6
30 18:51 W 9 6.00 Fair with Haze CLR 61 55 81% 29.83 1010.3
30 17:51 W 8 6.00 Fair with Haze CLR 63 55 76% 29.84 1010.4
30 16:51 SW 8 7.00 Fair CLR 64 55 66 63 73% 29.84 1010.5
30 15:51 W 12 G 17 9.00 Fair CLR 64 53.1 68% 29.85 1010.7
30 14:51 W 13 8.00 Partly Cloudy SCT008 64 55 73% 29.87 1011.4
30 13:51 SW 13 8.00 Fair CLR 64 54 70% 29.88 1011.7
30 12:51 W 10 8.00 Fair CLR 64.9 54 68% 29.89 1012.0
30 11:51 W 10 8.00 Fair CLR 64.9 55 70% 29.91 1012.6
30 10:51 W 8 8.00 Fair CLR 64 54 64 52 70% 29.92 1013.0
Date Time (pdt) Wind (mph) Vis. (mi.) Weather Sky Cond. Air Dwpt Max. Min. Relative Humidity Wind Chill (°F) Heat Index (°F) altimeter (in) sea level (mb) 1 hr 3 hr 6 hr
6 hour
Temperature (ºF) Pressure Precipitation (in)